Detalii statie SOPEMA [00001CFB]

Toti senzorii

Date Temperatura solului [C]Precipitatii [mm]Voltaj baterie [mV]Leaf Wetness [Min]HC Air temperature [C]HC Relative humidity [%]Punctul de roua [C]
medieminmaxsumaultimatimpmedieminmaxmediemediemin
2019-06-15 18:00:00 0.2 7030 24.4 22.82 25.66 67.64 17.7 15.7
2019-06-15 19:00:00 1.2 6952 21.49 21.12 22.2 99.77 21.4 21.1
2019-06-15 20:00:00 0 6874 21.24 20.95 21.56 100 21.1 20.9
2019-06-15 21:00:00 0 6844 20.81 20.57 21.05 100 20.7 20.5
2019-06-15 22:00:00 0 6854 19.97 19.44 20.52 100 19.9 19.4
2019-06-15 23:00:00 0 6854 19.78 19.45 20.07 100 19.7 19.4
2019-06-16 00:00:00 0 6854 18.85 18.51 19.48 100 18.8 18.5
2019-06-16 01:00:00 0 6854 18.06 17.49 18.9 100 18 17.4
2019-06-16 02:00:00 0.2 6854 17.76 17.47 18.36 100 17.7 17.4
2019-06-16 03:00:00 0 6834 17.34 16.99 17.67 100 17.2 16.9
2019-06-16 04:00:00 0 6834 17.32 16.96 17.88 100 17.2 16.9
2019-06-16 05:00:00 0 6826 17.21 16.66 17.58 100 17.1 16.6
2019-06-16 06:00:00 0 6816 17.24 17.03 17.4 100 17.2 17
2019-06-16 07:00:00 0 6826 18.82 17.88 19.94 100 18.7 17.8
2019-06-16 08:00:00 0 6854 21.01 20.25 21.97 100 20.9 20.2
2019-06-16 09:00:00 0 6914 24.01 22.26 25.38 93.28 22.7 21.7
2019-06-16 10:00:00 0 7040 27.02 25.67 28.7 78.84 22.8 21.8
2019-06-16 11:00:00 0 7206 29.5 28.67 30.54 67.74 22.7 21.5
2019-06-16 12:00:00 0 7236 30.52 29.82 31.15 60.42 21.7 19.9
2019-06-16 13:00:00 0 7254 31.94 31.07 32.7 49.63 19.8 18.5
2019-06-16 14:00:00 0 7254 32.9 32.15 33.38 40.59 17.5 16.1
2019-06-16 15:00:00 0 7236 33.21 32.89 34.08 41.11 17.9 17.4
2019-06-16 16:00:00 0 7166 33.62 32.95 34.89 40.72 18.1 16.3
2019-06-16 17:00:00 0 7128 33.95 33.44 34.37 36.65 16.8 15.2
2019-06-16 18:00:00 0 7060 31.27 28.67 33.6 44.79 17.5 16.4
2019-06-16 19:00:00 0 7000 29.3 28.94 29.61 49.48 17.4 16.7
2019-06-16 20:00:00 0 6922 27.61 26.75 28.97 58.05 18.4 17.7
2019-06-16 21:00:00 0 6864 24.41 23.13 26.06 80.23 20.5 18.4
2019-06-16 22:00:00 0 6834 23 22.32 23.86 84.61 20 19.1
2019-06-16 23:00:00 0 6834 21.56 19.84 22.67 93.36 20.3 19.8
2019-06-17 00:00:00 0 6834 19.43 19.04 19.86 100 19.3 19
2019-06-17 01:00:00 0 6854 18.41 17.68 18.92 100 18.3 17.6
2019-06-17 02:00:00 0 6834 18.72 18.07 19.34 100 18.6 18
2019-06-17 03:00:00 0 6844 17.92 17.03 18.98 100 17.8 17
2019-06-17 04:00:00 0 6844 17.28 16.75 17.77 100 17.2 16.7
2019-06-17 05:00:00 0 6826 18.55 18.19 18.96 100 18.5 18.1
2019-06-17 06:00:00 0 6816 19.03 18.85 19.18 100 19 18.8
2019-06-17 07:00:00 0 6844 20.02 18.98 21.27 100 19.9 18.9
2019-06-17 08:00:00 0 6874 22.47 21.38 23.77 99.77 22.3 21.3
2019-06-17 09:00:00 0 6932 25.65 24.22 27.21 82.93 22.3 21.8
2019-06-17 10:00:00 0 7050 28.07 27.32 29.15 67.39 21.3 20.7
2019-06-17 11:00:00 0 7246 29.97 29.06 30.9 60.91 21.4 20.6
2019-06-17 12:00:00 0 7236 31.81 30.79 32.91 52.57 20.6 19.5
2019-06-17 13:00:00 0 7236 33.12 32.44 33.66 46.61 19.9 19.2
2019-06-17 14:00:00 0 7236 33.36 33.07 33.78 44.14 19.3 18.6
2019-06-17 15:00:00 0 7236 33.28 32.65 33.75 42.65 18.6 17.5
2019-06-17 16:00:00 0 7158 33.42 32.99 33.79 39.63 17.5 16.2
2019-06-17 17:00:00 0 7080 33.34 33.17 33.64 38.16 16.8 16